Terminal Aerodrome Forecast
Issued by NWS La Crosse, WI

Home | Current Version | Previous Version | Text Only | Print | Product List | Glossary On
Versions: 1 2 3 4 5 6 7 8 9 10 11 12 13 14 15 16 17 18 19 20 21 22 23 24 25 26 27 28 29 30 31 32 33 34
000
FTUS43 KARX 061730
TAFRST
TAF
KRST 061730Z 0618/0718 23014KT P6SM SCT250
     FM062100 26012KT P6SM SCT250
     FM070000 25008KT P6SM BKN100
     FM070900 22013KT P6SM BKN050
      TEMPO 0711/0714 BKN025
     FM071400 30014G20KT P6SM SCT050=

USA.gov is the U.S. government's official web portal to all federal, state and local government web resources and services.